createdAt,value
2022-10-30T00:02:06.813Z,16.41
2022-10-30T00:07:12.378Z,16.36
2022-10-30T00:12:17.997Z,16.35
2022-10-30T00:17:23.533Z,16.36
2022-10-30T00:22:29.130Z,16.36
2022-10-30T00:27:34.703Z,16.34
2022-10-30T00:32:40.191Z,16.31
2022-10-30T00:37:45.593Z,16.21
2022-10-30T00:42:51.134Z,16.18
2022-10-30T00:48:03.026Z,16.17
2022-10-30T00:53:14.497Z,16.11
2022-10-30T00:58:22.954Z,16.04
2022-10-30T01:03:30.684Z,16.03
2022-10-30T01:08:38.651Z,15.98
2022-10-30T01:13:48.050Z,15.94
2022-10-30T01:19:16.319Z,15.91
2022-10-30T01:24:30.654Z,15.86
2022-10-30T01:29:39.170Z,15.83
2022-10-30T01:34:47.789Z,15.79
2022-10-30T01:39:53.891Z,15.74
2022-10-30T01:44:59.576Z,15.74
2022-10-30T01:50:14.908Z,15.77
2022-10-30T01:56:00.152Z,15.78
2022-10-30T02:01:06.928Z,15.76
2022-10-30T02:06:13.079Z,15.71
2022-10-30T02:11:19.895Z,15.69
2022-10-30T02:16:25.696Z,15.69
2022-10-30T02:21:31.715Z,15.71
2022-10-30T02:26:38.321Z,15.70
2022-10-30T02:31:45.380Z,15.66
2022-10-30T02:36:51.172Z,15.66
2022-10-30T02:41:56.894Z,15.68
2022-10-30T02:47:03.264Z,15.71
2022-10-30T02:52:09.674Z,15.70
2022-10-30T02:57:15.206Z,15.70
2022-10-30T03:02:22.691Z,15.72
2022-10-30T03:07:29.352Z,15.70
2022-10-30T03:12:35.099Z,15.65
2022-10-30T03:22:49.155Z,15.63
2022-10-30T03:27:55.988Z,15.61
2022-10-30T03:33:01.935Z,15.56
2022-10-30T03:38:07.480Z,15.52
2022-10-30T03:43:13.020Z,15.51
2022-10-30T03:48:20.582Z,15.47
2022-10-30T03:53:26.762Z,15.47
2022-10-30T03:58:32.945Z,15.47
2022-10-30T04:03:38.893Z,15.48
2022-10-30T04:08:44.352Z,15.47
2022-10-30T04:13:50.004Z,15.46
2022-10-30T04:18:55.625Z,15.46
2022-10-30T04:24:01.163Z,15.47
2022-10-30T04:29:07.917Z,15.49
2022-10-30T04:34:14.091Z,15.50
2022-10-30T04:39:20.692Z,15.47
2022-10-30T04:44:27.824Z,15.46
2022-10-30T04:49:33.597Z,15.45
2022-10-30T04:54:39.595Z,15.43
2022-10-30T04:59:45.352Z,15.43
2022-10-30T05:04:51.487Z,15.44
2022-10-30T05:09:56.999Z,15.43
2022-10-30T05:15:04.523Z,15.34
2022-10-30T05:20:14.907Z,15.33
2022-10-30T05:25:19.642Z,15.33
2022-10-30T05:30:25.554Z,15.31
2022-10-30T05:35:35.488Z,15.31
2022-10-30T05:40:41.623Z,15.33
2022-10-30T05:45:51.781Z,15.33
2022-10-30T05:50:57.986Z,15.32
2022-10-30T05:56:05.661Z,15.33
2022-10-30T06:01:12.498Z,15.34
2022-10-30T06:06:19.587Z,15.31
2022-10-30T06:11:25.114Z,15.27
2022-10-30T06:21:51.450Z,15.26
2022-10-30T06:27:04.754Z,15.29
2022-10-30T06:32:10.358Z,15.31
2022-10-30T06:37:16.198Z,15.29
2022-10-30T06:42:22.003Z,15.32
2022-10-30T06:47:29.223Z,15.30
2022-10-30T06:52:35.030Z,15.24
2022-10-30T06:57:42.422Z,15.25
2022-10-30T07:03:07.464Z,15.35
2022-10-30T07:08:13.277Z,15.43
2022-10-30T07:13:19.438Z,15.50
2022-10-30T07:18:26.776Z,15.59
2022-10-30T07:23:33.938Z,15.63
2022-10-30T07:28:43.790Z,15.68
2022-10-30T07:33:59.544Z,15.69
2022-10-30T07:39:12.627Z,15.75
2022-10-30T07:44:22.124Z,15.73
2022-10-30T07:49:29.231Z,15.81
2022-10-30T07:54:39.574Z,15.96
2022-10-30T07:59:52.690Z,16.10
2022-10-30T08:05:00.025Z,16.22
2022-10-30T08:10:13.427Z,16.30
2022-10-30T08:15:19.237Z,16.37
2022-10-30T08:20:26.752Z,16.45
2022-10-30T08:25:32.881Z,16.50
2022-10-30T08:30:39.267Z,16.59
2022-10-30T08:35:54.117Z,16.68
2022-10-30T08:41:00.039Z,16.76
2022-10-30T08:46:06.231Z,16.84
2022-10-30T08:51:11.904Z,17.00
2022-10-30T08:56:19.639Z,17.19
2022-10-30T09:01:27.052Z,17.42
2022-10-30T09:06:43.530Z,17.56
2022-10-30T09:11:59.670Z,17.77
2022-10-30T09:17:06.226Z,17.97
2022-10-30T09:22:13.676Z,18.23
2022-10-30T09:27:20.040Z,18.45
2022-10-30T09:32:27.218Z,18.67
2022-10-30T09:37:39.590Z,18.94
2022-10-30T09:42:49.799Z,19.07
2022-10-30T09:48:22.569Z,19.23
2022-10-30T09:53:45.447Z,19.46
2022-10-30T09:59:13.985Z,19.57
2022-10-30T10:04:46.624Z,19.67
2022-10-30T10:09:56.879Z,19.76
2022-10-30T10:15:40.140Z,19.77
2022-10-30T10:20:48.468Z,19.81
2022-10-30T10:25:59.784Z,19.83
2022-10-30T10:31:10.957Z,19.84
2022-10-30T10:36:31.488Z,19.82
2022-10-30T10:41:53.503Z,19.89
2022-10-30T10:47:18.795Z,19.82
2022-10-30T10:52:32.949Z,19.86
2022-10-30T10:57:42.092Z,19.85
2022-10-30T11:03:05.448Z,19.95
2022-10-30T11:08:26.076Z,19.95
2022-10-30T11:13:34.545Z,19.92
2022-10-30T11:18:41.451Z,19.95
2022-10-30T11:23:49.320Z,19.95
2022-10-30T11:29:06.685Z,19.97
2022-10-30T11:34:21.851Z,20.02
2022-10-30T11:39:35.718Z,20.01
2022-10-30T11:44:43.761Z,20.05
2022-10-30T11:50:01.196Z,20.11
2022-10-30T11:55:30.618Z,20.12
2022-10-30T12:00:41.045Z,20.10
2022-10-30T12:05:50.269Z,20.10
2022-10-30T12:11:00.187Z,20.13
2022-10-30T12:16:11.482Z,20.13
2022-10-30T12:21:20.349Z,20.06
2022-10-30T12:26:27.062Z,20.05
2022-10-30T12:31:44.449Z,20.01
2022-10-30T12:36:58.742Z,20.01
2022-10-30T12:42:16.559Z,20.00
2022-10-30T12:47:41.776Z,20.00
2022-10-30T12:53:02.404Z,20.04
2022-10-30T12:58:29.008Z,20.03
2022-10-30T13:04:03.225Z,20.13
2022-10-30T13:09:17.721Z,20.22
2022-10-30T13:14:28.431Z,20.35
2022-10-30T13:19:34.588Z,20.43
2022-10-30T13:24:45.864Z,20.48
2022-10-30T13:30:17.111Z,20.58
2022-10-30T13:35:41.465Z,20.59
2022-10-30T13:40:59.021Z,20.54
2022-10-30T13:46:19.782Z,20.53
2022-10-30T13:51:40.736Z,20.53
2022-10-30T13:56:49.055Z,20.55
2022-10-30T14:02:06.931Z,20.52
2022-10-30T14:07:24.402Z,20.53
2022-10-30T14:12:53.577Z,20.53
2022-10-30T14:18:17.343Z,20.49
2022-10-30T14:23:25.874Z,20.39
2022-10-30T14:28:45.967Z,20.35
2022-10-30T14:33:53.396Z,20.30
2022-10-30T14:39:13.880Z,20.21
2022-10-30T14:44:22.329Z,20.16
2022-10-30T14:49:51.526Z,20.04
2022-10-30T14:55:28.764Z,19.98
2022-10-30T15:00:40.209Z,19.88
2022-10-30T15:05:51.518Z,19.73
2022-10-30T15:11:17.569Z,19.65
2022-10-30T15:16:22.250Z,19.54
2022-10-30T15:21:29.870Z,19.41
2022-10-30T15:26:40.574Z,19.28
2022-10-30T15:31:46.188Z,19.15
2022-10-30T15:36:51.663Z,18.98
2022-10-30T15:42:00.502Z,18.85
2022-10-30T15:47:08.675Z,18.70
2022-10-30T15:52:18.135Z,18.53
2022-10-30T15:58:03.917Z,18.42
2022-10-30T16:02:40.913Z,18.28
2022-10-30T16:07:48.285Z,18.16
2022-10-30T16:12:57.442Z,18.03
2022-10-30T16:18:17.927Z,17.95
2022-10-30T16:23:24.842Z,17.83
2022-10-30T16:28:38.389Z,17.71
2022-10-30T16:33:47.693Z,17.56
2022-10-30T16:38:53.628Z,17.48
2022-10-30T16:44:17.584Z,17.34
2022-10-30T16:49:28.727Z,17.25
2022-10-30T16:54:39.595Z,17.17
2022-10-30T16:59:52.040Z,17.11
2022-10-30T17:05:03.459Z,17.08
2022-10-30T17:10:28.329Z,17.03
2022-10-30T17:15:34.146Z,17.00
2022-10-30T17:20:39.986Z,16.92
2022-10-30T17:25:45.631Z,16.89
2022-10-30T17:30:51.477Z,16.84
2022-10-30T17:35:57.324Z,16.77
2022-10-30T17:41:03.694Z,16.71
2022-10-30T17:46:09.835Z,16.64
2022-10-30T17:51:16.403Z,16.64
2022-10-30T17:56:48.564Z,16.66
2022-10-30T18:01:54.133Z,16.69
2022-10-30T18:06:59.703Z,16.70
2022-10-30T18:12:06.952Z,16.61
2022-10-30T18:17:12.493Z,16.58
2022-10-30T18:22:17.949Z,16.55
2022-10-30T18:27:23.343Z,16.54
2022-10-30T18:32:28.894Z,16.54
2022-10-30T18:37:34.359Z,16.53
2022-10-30T18:42:40.035Z,16.52
2022-10-30T18:47:45.964Z,16.48
2022-10-30T18:52:51.965Z,16.37
2022-10-30T18:57:57.755Z,16.35
2022-10-30T19:03:04.669Z,16.34
2022-10-30T19:08:11.951Z,16.27
2022-10-30T19:13:22.622Z,16.26
2022-10-30T19:18:31.319Z,16.21
2022-10-30T19:23:36.931Z,16.21
2022-10-30T19:28:43.028Z,16.30
2022-10-30T19:33:53.029Z,16.26
2022-10-30T19:39:05.734Z,16.22
2022-10-30T19:44:08.680Z,16.20
2022-10-30T19:49:17.266Z,16.18
2022-10-30T19:54:22.731Z,16.18
2022-10-30T19:59:28.277Z,16.08
2022-10-30T20:04:33.761Z,16.08
2022-10-30T20:09:39.245Z,16.03
2022-10-30T20:14:44.784Z,16.05
2022-10-30T20:19:50.598Z,16.04
2022-10-30T20:24:56.090Z,16.09
2022-10-30T20:30:04.208Z,16.11
2022-10-30T20:35:11.322Z,16.08
2022-10-30T20:40:18.295Z,16.05
2022-10-30T20:45:26.950Z,16.02
2022-10-30T20:50:32.488Z,15.99
2022-10-30T20:55:38.154Z,15.93
2022-10-30T21:00:43.993Z,15.96
2022-10-30T21:05:52.457Z,15.95
2022-10-30T21:11:03.211Z,15.87
2022-10-30T21:16:10.351Z,15.80
2022-10-30T21:21:20.307Z,15.74
2022-10-30T21:26:24.980Z,15.67
2022-10-30T21:31:30.580Z,15.58
2022-10-30T21:36:36.137Z,15.51
2022-10-30T21:41:41.589Z,15.49
2022-10-30T21:46:47.130Z,15.47
2022-10-30T21:51:52.546Z,15.44
2022-10-30T21:56:58.862Z,15.43
2022-10-30T22:02:04.382Z,15.37
2022-10-30T22:07:09.999Z,15.30
2022-10-30T22:12:15.493Z,15.30
2022-10-30T22:17:21.362Z,15.27
2022-10-30T22:22:26.900Z,15.24
2022-10-30T22:27:55.296Z,15.25
2022-10-30T22:33:01.215Z,15.16
2022-10-30T22:38:06.974Z,15.12
2022-10-30T22:43:12.507Z,15.11
2022-10-30T22:48:17.954Z,15.08
2022-10-30T22:53:23.424Z,15.09
2022-10-30T22:58:30.844Z,15.12
2022-10-30T23:03:36.470Z,15.12
2022-10-30T23:08:42.440Z,15.09
2022-10-30T23:13:49.263Z,15.07
2022-10-30T23:19:00.507Z,15.06
2022-10-30T23:24:06.929Z,15.05
2022-10-30T23:29:13.262Z,15.04
2022-10-30T23:34:19.014Z,15.04
2022-10-30T23:39:24.617Z,15.04
2022-10-30T23:44:30.081Z,15.03
2022-10-30T23:49:35.994Z,15.00
2022-10-30T23:54:41.532Z,14.98
2022-10-30T23:59:47.904Z,14.97
